Terminal Aerodrome Forecast
Issued by NWS Cleveland, OH

Home | Current Version | Previous Version | Text Only | Print | Product List | Glossary Off
Versions: 1 2 3 4 5 6 7 8 9 10 11 12 13 14 15 16 17 18 19 20 21

000
FTUS41 KCLE 221541 AAB
TAFYNG
TAF AMD
KYNG 221541Z 2216/2312 16006KT 6SM -SHRA BR BKN004
      TEMPO 2216/2217 4SM -SHRA BR BKN015
     FM221700 19005KT P6SM VCSH OVC015
     FM221800 20005KT P6SM SCT025 BKN070
     FM222100 22006KT P6SM -SHRA VCTS BKN030CB OVC040
     FM230200 26007KT P6SM SCT030 BKN080
     FM230900 22004KT 6SM BR SCT007 BKN012=

USA.gov is the U.S. government's official web portal to all federal, state and local government web resources and services.